sensor_id;sensor_type;location;lat;lon;timestamp;P1;durP1;ratioP1;P2;durP2;ratioP2
24425;SDS011;12611;44.446;26.000;2022-11-13T00:01:16;66.00;;;33.40;;
24425;SDS011;12611;44.446;26.000;2022-11-13T00:03:47;65.87;;;33.83;;
24425;SDS011;12611;44.446;26.000;2022-11-13T00:06:16;65.40;;;33.37;;
24425;SDS011;12611;44.446;26.000;2022-11-13T00:08:45;71.23;;;34.20;;
24425;SDS011;12611;44.446;26.000;2022-11-13T00:11:15;60.90;;;31.27;;
24425;SDS011;12611;44.446;26.000;2022-11-13T00:13:44;65.47;;;32.67;;
24425;SDS011;12611;44.446;26.000;2022-11-13T00:16:14;70.17;;;33.77;;
24425;SDS011;12611;44.446;26.000;2022-11-13T00:18:44;63.67;;;32.50;;
24425;SDS011;12611;44.446;26.000;2022-11-13T00:21:15;65.93;;;33.60;;
24425;SDS011;12611;44.446;26.000;2022-11-13T00:23:44;58.63;;;32.17;;
24425;SDS011;12611;44.446;26.000;2022-11-13T00:26:13;64.97;;;31.70;;
24425;SDS011;12611;44.446;26.000;2022-11-13T00:28:43;63.43;;;32.27;;
24425;SDS011;12611;44.446;26.000;2022-11-13T00:31:12;66.30;;;34.50;;
24425;SDS011;12611;44.446;26.000;2022-11-13T00:33:41;62.07;;;32.23;;
24425;SDS011;12611;44.446;26.000;2022-11-13T00:36:31;67.93;;;32.63;;
24425;SDS011;12611;44.446;26.000;2022-11-13T00:38:59;64.23;;;33.07;;
24425;SDS011;12611;44.446;26.000;2022-11-13T00:41:28;66.30;;;36.33;;
24425;SDS011;12611;44.446;26.000;2022-11-13T00:43:56;68.67;;;33.97;;
24425;SDS011;12611;44.446;26.000;2022-11-13T00:46:24;59.53;;;30.50;;
24425;SDS011;12611;44.446;26.000;2022-11-13T00:48:52;62.60;;;32.73;;
24425;SDS011;12611;44.446;26.000;2022-11-13T00:51:21;63.93;;;33.23;;
24425;SDS011;12611;44.446;26.000;2022-11-13T00:53:50;67.82;;;36.33;;
24425;SDS011;12611;44.446;26.000;2022-11-13T00:56:19;57.40;;;31.57;;
24425;SDS011;12611;44.446;26.000;2022-11-13T00:58:47;61.77;;;32.47;;
24425;SDS011;12611;44.446;26.000;2022-11-13T01:01:16;64.33;;;32.90;;
24425;SDS011;12611;44.446;26.000;2022-11-13T01:03:45;63.23;;;32.70;;
24425;SDS011;12611;44.446;26.000;2022-11-13T01:06:15;60.83;;;31.90;;
24425;SDS011;12611;44.446;26.000;2022-11-13T01:08:46;59.50;;;30.90;;
24425;SDS011;12611;44.446;26.000;2022-11-13T01:11:16;55.63;;;31.17;;
24425;SDS011;12611;44.446;26.000;2022-11-13T01:13:47;57.27;;;30.97;;
24425;SDS011;12611;44.446;26.000;2022-11-13T01:16:17;56.07;;;31.80;;
24425;SDS011;12611;44.446;26.000;2022-11-13T01:18:47;55.43;;;29.90;;
24425;SDS011;12611;44.446;26.000;2022-11-13T01:21:16;57.23;;;30.10;;
24425;SDS011;12611;44.446;26.000;2022-11-13T01:23:46;57.87;;;30.90;;
24425;SDS011;12611;44.446;26.000;2022-11-13T01:26:17;58.80;;;31.77;;
24425;SDS011;12611;44.446;26.000;2022-11-13T01:28:48;66.53;;;32.87;;
24425;SDS011;12611;44.446;26.000;2022-11-13T01:31:18;54.97;;;31.10;;
24425;SDS011;12611;44.446;26.000;2022-11-13T01:33:48;63.03;;;30.03;;
24425;SDS011;12611;44.446;26.000;2022-11-13T01:36:16;58.17;;;31.50;;
24425;SDS011;12611;44.446;26.000;2022-11-13T01:38:47;58.23;;;30.77;;
24425;SDS011;12611;44.446;26.000;2022-11-13T01:41:18;59.53;;;32.17;;
24425;SDS011;12611;44.446;26.000;2022-11-13T01:43:49;56.80;;;30.37;;
24425;SDS011;12611;44.446;26.000;2022-11-13T01:46:20;61.93;;;31.07;;
24425;SDS011;12611;44.446;26.000;2022-11-13T01:48:55;66.13;;;31.07;;
24425;SDS011;12611;44.446;26.000;2022-11-13T01:51:29;67.33;;;32.17;;
24425;SDS011;12611;44.446;26.000;2022-11-13T01:54:02;59.70;;;30.83;;
24425;SDS011;12611;44.446;26.000;2022-11-13T01:56:34;67.67;;;30.67;;
24425;SDS011;12611;44.446;26.000;2022-11-13T01:59:04;52.57;;;30.33;;
24425;SDS011;12611;44.446;26.000;2022-11-13T02:01:35;56.63;;;30.83;;
24425;SDS011;12611;44.446;26.000;2022-11-13T02:04:03;62.93;;;31.73;;
24425;SDS011;12611;44.446;26.000;2022-11-13T02:06:34;61.53;;;31.53;;
24425;SDS011;12611;44.446;26.000;2022-11-13T02:09:07;62.53;;;32.17;;
24425;SDS011;12611;44.446;26.000;2022-11-13T02:11:39;57.60;;;29.73;;
24425;SDS011;12611;44.446;26.000;2022-11-13T02:14:08;57.23;;;30.10;;
24425;SDS011;12611;44.446;26.000;2022-11-13T02:16:38;53.60;;;29.33;;
24425;SDS011;12611;44.446;26.000;2022-11-13T02:19:11;53.77;;;29.57;;
24425;SDS011;12611;44.446;26.000;2022-11-13T02:21:46;55.57;;;28.87;;
24425;SDS011;12611;44.446;26.000;2022-11-13T02:24:24;58.77;;;29.83;;
24425;SDS011;12611;44.446;26.000;2022-11-13T02:26:59;55.00;;;28.67;;
24425;SDS011;12611;44.446;26.000;2022-11-13T02:29:31;61.00;;;29.47;;
24425;SDS011;12611;44.446;26.000;2022-11-13T02:31:59;52.00;;;28.73;;
24425;SDS011;12611;44.446;26.000;2022-11-13T02:34:27;58.07;;;30.10;;
24425;SDS011;12611;44.446;26.000;2022-11-13T02:36:55;56.40;;;29.00;;
24425;SDS011;12611;44.446;26.000;2022-11-13T02:39:25;56.73;;;29.57;;
24425;SDS011;12611;44.446;26.000;2022-11-13T02:41:53;55.90;;;28.70;;
24425;SDS011;12611;44.446;26.000;2022-11-13T02:44:22;54.77;;;27.60;;
24425;SDS011;12611;44.446;26.000;2022-11-13T02:46:50;54.50;;;29.50;;
24425;SDS011;12611;44.446;26.000;2022-11-13T02:49:18;54.43;;;29.47;;
24425;SDS011;12611;44.446;26.000;2022-11-13T02:51:47;53.70;;;27.87;;
24425;SDS011;12611;44.446;26.000;2022-11-13T02:54:15;50.73;;;27.60;;
24425;SDS011;12611;44.446;26.000;2022-11-13T02:56:45;55.87;;;28.50;;
24425;SDS011;12611;44.446;26.000;2022-11-13T02:59:13;50.57;;;27.83;;
24425;SDS011;12611;44.446;26.000;2022-11-13T03:01:41;54.43;;;27.43;;
24425;SDS011;12611;44.446;26.000;2022-11-13T03:04:09;44.87;;;26.43;;
24425;SDS011;12611;44.446;26.000;2022-11-13T03:06:38;52.40;;;28.30;;
24425;SDS011;12611;44.446;26.000;2022-11-13T03:09:06;52.97;;;26.57;;
24425;SDS011;12611;44.446;26.000;2022-11-13T03:11:35;45.10;;;25.40;;
24425;SDS011;12611;44.446;26.000;2022-11-13T03:14:04;48.27;;;26.47;;
24425;SDS011;12611;44.446;26.000;2022-11-13T03:16:33;51.20;;;27.33;;
24425;SDS011;12611;44.446;26.000;2022-11-13T03:19:01;48.07;;;26.83;;
24425;SDS011;12611;44.446;26.000;2022-11-13T03:21:30;53.73;;;26.47;;
24425;SDS011;12611;44.446;26.000;2022-11-13T03:23:58;51.30;;;25.90;;
24425;SDS011;12611;44.446;26.000;2022-11-13T03:26:27;47.97;;;26.13;;
24425;SDS011;12611;44.446;26.000;2022-11-13T03:28:56;47.87;;;25.13;;
24425;SDS011;12611;44.446;26.000;2022-11-13T03:31:25;53.60;;;28.97;;
24425;SDS011;12611;44.446;26.000;2022-11-13T03:33:54;56.27;;;30.13;;
24425;SDS011;12611;44.446;26.000;2022-11-13T03:36:22;57.17;;;30.47;;
24425;SDS011;12611;44.446;26.000;2022-11-13T03:38:51;55.23;;;29.17;;
24425;SDS011;12611;44.446;26.000;2022-11-13T03:41:20;55.53;;;27.93;;
24425;SDS011;12611;44.446;26.000;2022-11-13T03:43:49;51.53;;;25.87;;
24425;SDS011;12611;44.446;26.000;2022-11-13T03:46:17;45.72;;;27.33;;
24425;SDS011;12611;44.446;26.000;2022-11-13T03:48:46;47.33;;;25.57;;
24425;SDS011;12611;44.446;26.000;2022-11-13T03:51:15;42.77;;;24.17;;
24425;SDS011;12611;44.446;26.000;2022-11-13T03:53:43;45.60;;;26.07;;
24425;SDS011;12611;44.446;26.000;2022-11-13T03:56:11;50.13;;;25.50;;
24425;SDS011;12611;44.446;26.000;2022-11-13T03:58:40;47.27;;;24.90;;
24425;SDS011;12611;44.446;26.000;2022-11-13T04:01:14;49.87;;;26.53;;
24425;SDS011;12611;44.446;26.000;2022-11-13T04:03:43;47.87;;;26.33;;
24425;SDS011;12611;44.446;26.000;2022-11-13T04:06:12;47.90;;;25.80;;
24425;SDS011;12611;44.446;26.000;2022-11-13T04:08:41;46.30;;;24.67;;
24425;SDS011;12611;44.446;26.000;2022-11-13T04:11:10;48.70;;;25.10;;
24425;SDS011;12611;44.446;26.000;2022-11-13T04:13:39;40.67;;;23.57;;
24425;SDS011;12611;44.446;26.000;2022-11-13T04:16:07;44.00;;;23.70;;
24425;SDS011;12611;44.446;26.000;2022-11-13T04:18:35;42.03;;;22.17;;
24425;SDS011;12611;44.446;26.000;2022-11-13T04:21:04;44.27;;;23.23;;
24425;SDS011;12611;44.446;26.000;2022-11-13T04:23:34;47.58;;;23.33;;
24425;SDS011;12611;44.446;26.000;2022-11-13T04:26:02;45.20;;;20.97;;
24425;SDS011;12611;44.446;26.000;2022-11-13T04:28:31;45.63;;;21.67;;
24425;SDS011;12611;44.446;26.000;2022-11-13T04:30:59;39.80;;;20.03;;
24425;SDS011;12611;44.446;26.000;2022-11-13T04:33:28;41.07;;;22.17;;
24425;SDS011;12611;44.446;26.000;2022-11-13T04:35:56;45.23;;;22.03;;
24425;SDS011;12611;44.446;26.000;2022-11-13T04:38:24;43.50;;;21.50;;
24425;SDS011;12611;44.446;26.000;2022-11-13T04:40:54;38.00;;;20.97;;
24425;SDS011;12611;44.446;26.000;2022-11-13T04:43:37;46.80;;;21.73;;
24425;SDS011;12611;44.446;26.000;2022-11-13T04:46:05;45.07;;;21.13;;
24425;SDS011;12611;44.446;26.000;2022-11-13T04:48:33;41.37;;;20.20;;
24425;SDS011;12611;44.446;26.000;2022-11-13T04:51:02;36.87;;;19.90;;
24425;SDS011;12611;44.446;26.000;2022-11-13T04:53:30;31.90;;;19.33;;
24425;SDS011;12611;44.446;26.000;2022-11-13T04:56:01;34.13;;;20.17;;
24425;SDS011;12611;44.446;26.000;2022-11-13T04:58:29;47.13;;;19.93;;
24425;SDS011;12611;44.446;26.000;2022-11-13T05:00:57;41.33;;;18.10;;
24425;SDS011;12611;44.446;26.000;2022-11-13T05:03:26;36.63;;;19.13;;
24425;SDS011;12611;44.446;26.000;2022-11-13T05:05:59;35.63;;;18.03;;
24425;SDS011;12611;44.446;26.000;2022-11-13T05:08:28;35.03;;;19.17;;
24425;SDS011;12611;44.446;26.000;2022-11-13T05:10:57;31.77;;;16.60;;
24425;SDS011;12611;44.446;26.000;2022-11-13T05:13:27;31.43;;;18.07;;
24425;SDS011;12611;44.446;26.000;2022-11-13T05:16:00;40.37;;;17.73;;
24425;SDS011;12611;44.446;26.000;2022-11-13T05:18:30;32.50;;;17.27;;
24425;SDS011;12611;44.446;26.000;2022-11-13T05:20:58;32.10;;;17.20;;
24425;SDS011;12611;44.446;26.000;2022-11-13T05:23:27;39.33;;;19.20;;
24425;SDS011;12611;44.446;26.000;2022-11-13T05:26:00;31.70;;;17.33;;
24425;SDS011;12611;44.446;26.000;2022-11-13T05:28:30;31.30;;;17.70;;
24425;SDS011;12611;44.446;26.000;2022-11-13T05:31:02;29.53;;;16.77;;
24425;SDS011;12611;44.446;26.000;2022-11-13T05:33:31;35.83;;;18.13;;
24425;SDS011;12611;44.446;26.000;2022-11-13T05:36:00;36.17;;;17.70;;
24425;SDS011;12611;44.446;26.000;2022-11-13T05:38:28;32.37;;;17.93;;
24425;SDS011;12611;44.446;26.000;2022-11-13T05:41:01;30.67;;;17.00;;
24425;SDS011;12611;44.446;26.000;2022-11-13T05:43:31;32.90;;;17.40;;
24425;SDS011;12611;44.446;26.000;2022-11-13T05:46:01;35.37;;;17.73;;
24425;SDS011;12611;44.446;26.000;2022-11-13T05:48:30;37.37;;;18.03;;
24425;SDS011;12611;44.446;26.000;2022-11-13T05:50:59;31.73;;;17.03;;
24425;SDS011;12611;44.446;26.000;2022-11-13T05:53:28;33.33;;;18.57;;
24425;SDS011;12611;44.446;26.000;2022-11-13T05:55:59;34.13;;;18.80;;
24425;SDS011;12611;44.446;26.000;2022-11-13T05:58:28;38.57;;;17.73;;
24425;SDS011;12611;44.446;26.000;2022-11-13T06:01:05;35.40;;;18.13;;
24425;SDS011;12611;44.446;26.000;2022-11-13T06:03:37;32.73;;;17.67;;
24425;SDS011;12611;44.446;26.000;2022-11-13T06:06:07;33.07;;;17.30;;
24425;SDS011;12611;44.446;26.000;2022-11-13T06:08:36;30.77;;;17.13;;
24425;SDS011;12611;44.446;26.000;2022-11-13T06:11:06;30.10;;;17.20;;
24425;SDS011;12611;44.446;26.000;2022-11-13T06:13:36;31.30;;;15.57;;
24425;SDS011;12611;44.446;26.000;2022-11-13T06:16:06;29.00;;;15.97;;
24425;SDS011;12611;44.446;26.000;2022-11-13T06:18:36;30.83;;;16.00;;
24425;SDS011;12611;44.446;26.000;2022-11-13T06:21:06;33.93;;;16.87;;
24425;SDS011;12611;44.446;26.000;2022-11-13T06:23:36;31.77;;;16.53;;
24425;SDS011;12611;44.446;26.000;2022-11-13T06:26:07;32.57;;;15.03;;
24425;SDS011;12611;44.446;26.000;2022-11-13T06:28:37;28.37;;;15.30;;
24425;SDS011;12611;44.446;26.000;2022-11-13T06:31:07;40.27;;;16.13;;
24425;SDS011;12611;44.446;26.000;2022-11-13T06:33:37;25.73;;;14.87;;
24425;SDS011;12611;44.446;26.000;2022-11-13T06:36:07;24.90;;;13.93;;
24425;SDS011;12611;44.446;26.000;2022-11-13T06:38:38;31.47;;;13.57;;
24425;SDS011;12611;44.446;26.000;2022-11-13T06:41:07;31.30;;;14.00;;
24425;SDS011;12611;44.446;26.000;2022-11-13T06:43:36;24.23;;;13.20;;
24425;SDS011;12611;44.446;26.000;2022-11-13T06:46:05;23.73;;;13.77;;
24425;SDS011;12611;44.446;26.000;2022-11-13T06:48:39;29.70;;;15.30;;
24425;SDS011;12611;44.446;26.000;2022-11-13T06:51:09;28.43;;;15.33;;
24425;SDS011;12611;44.446;26.000;2022-11-13T06:53:41;24.73;;;13.73;;
24425;SDS011;12611;44.446;26.000;2022-11-13T06:56:09;25.37;;;14.87;;
24425;SDS011;12611;44.446;26.000;2022-11-13T06:58:38;25.00;;;14.97;;
24425;SDS011;12611;44.446;26.000;2022-11-13T07:01:09;26.37;;;13.97;;
24425;SDS011;12611;44.446;26.000;2022-11-13T07:03:38;27.00;;;14.13;;
24425;SDS011;12611;44.446;26.000;2022-11-13T07:06:08;25.90;;;14.73;;
24425;SDS011;12611;44.446;26.000;2022-11-13T07:08:39;27.67;;;15.17;;
24425;SDS011;12611;44.446;26.000;2022-11-13T07:11:08;28.60;;;16.95;;
24425;SDS011;12611;44.446;26.000;2022-11-13T07:13:38;31.17;;;16.83;;
24425;SDS011;12611;44.446;26.000;2022-11-13T07:16:08;32.07;;;18.67;;
24425;SDS011;12611;44.446;26.000;2022-11-13T07:18:47;30.57;;;17.37;;
24425;SDS011;12611;44.446;26.000;2022-11-13T07:21:17;33.43;;;17.20;;
24425;SDS011;12611;44.446;26.000;2022-11-13T07:23:46;28.47;;;16.60;;
24425;SDS011;12611;44.446;26.000;2022-11-13T07:26:15;29.70;;;15.47;;
24425;SDS011;12611;44.446;26.000;2022-11-13T07:28:43;31.73;;;16.97;;
24425;SDS011;12611;44.446;26.000;2022-11-13T07:31:14;26.77;;;13.83;;
24425;SDS011;12611;44.446;26.000;2022-11-13T07:33:43;26.90;;;15.33;;
24425;SDS011;12611;44.446;26.000;2022-11-13T07:36:15;27.90;;;14.70;;
24425;SDS011;12611;44.446;26.000;2022-11-13T07:38:43;28.20;;;15.10;;
24425;SDS011;12611;44.446;26.000;2022-11-13T07:41:12;32.03;;;17.77;;
24425;SDS011;12611;44.446;26.000;2022-11-13T07:43:40;30.40;;;17.13;;
24425;SDS011;12611;44.446;26.000;2022-11-13T07:46:08;28.90;;;16.33;;
24425;SDS011;12611;44.446;26.000;2022-11-13T07:48:38;27.07;;;15.27;;
24425;SDS011;12611;44.446;26.000;2022-11-13T07:51:06;27.20;;;15.77;;
24425;SDS011;12611;44.446;26.000;2022-11-13T07:53:35;29.87;;;15.60;;
24425;SDS011;12611;44.446;26.000;2022-11-13T07:56:04;23.30;;;13.93;;
24425;SDS011;12611;44.446;26.000;2022-11-13T07:58:33;25.07;;;14.20;;
24425;SDS011;12611;44.446;26.000;2022-11-13T08:01:02;28.07;;;15.00;;
24425;SDS011;12611;44.446;26.000;2022-11-13T08:03:31;25.00;;;14.53;;
24425;SDS011;12611;44.446;26.000;2022-11-13T08:06:05;25.80;;;14.47;;
24425;SDS011;12611;44.446;26.000;2022-11-13T08:08:34;21.80;;;14.10;;
24425;SDS011;12611;44.446;26.000;2022-11-13T08:11:03;20.90;;;12.40;;
24425;SDS011;12611;44.446;26.000;2022-11-13T08:13:32;23.60;;;12.17;;
24425;SDS011;12611;44.446;26.000;2022-11-13T08:16:01;25.00;;;11.70;;
24425;SDS011;12611;44.446;26.000;2022-11-13T08:18:30;23.70;;;12.70;;
24425;SDS011;12611;44.446;26.000;2022-11-13T08:20:59;21.27;;;12.50;;
24425;SDS011;12611;44.446;26.000;2022-11-13T08:23:30;20.80;;;12.50;;
24425;SDS011;12611;44.446;26.000;2022-11-13T08:26:02;21.17;;;12.60;;
24425;SDS011;12611;44.446;26.000;2022-11-13T08:28:31;22.73;;;12.60;;
24425;SDS011;12611;44.446;26.000;2022-11-13T08:31:00;20.83;;;11.33;;
24425;SDS011;12611;44.446;26.000;2022-11-13T08:33:29;24.03;;;12.67;;
24425;SDS011;12611;44.446;26.000;2022-11-13T08:35:58;23.70;;;12.23;;
24425;SDS011;12611;44.446;26.000;2022-11-13T08:38:27;19.03;;;11.37;;
24425;SDS011;12611;44.446;26.000;2022-11-13T08:40:57;23.87;;;13.23;;
24425;SDS011;12611;44.446;26.000;2022-11-13T08:43:33;22.40;;;11.40;;
24425;SDS011;12611;44.446;26.000;2022-11-13T08:46:02;25.23;;;12.67;;
24425;SDS011;12611;44.446;26.000;2022-11-13T08:48:30;22.80;;;12.17;;
24425;SDS011;12611;44.446;26.000;2022-11-13T08:50:58;20.37;;;11.63;;
24425;SDS011;12611;44.446;26.000;2022-11-13T08:53:26;20.63;;;11.60;;
24425;SDS011;12611;44.446;26.000;2022-11-13T08:55:59;23.03;;;12.63;;
24425;SDS011;12611;44.446;26.000;2022-11-13T08:58:28;21.57;;;11.57;;
24425;SDS011;12611;44.446;26.000;2022-11-13T09:01:01;22.17;;;11.40;;
24425;SDS011;12611;44.446;26.000;2022-11-13T09:03:30;24.07;;;11.20;;
24425;SDS011;12611;44.446;26.000;2022-11-13T09:05:58;27.53;;;11.80;;
24425;SDS011;12611;44.446;26.000;2022-11-13T09:08:28;20.02;;;12.23;;
24425;SDS011;12611;44.446;26.000;2022-11-13T09:11:02;22.77;;;12.03;;
24425;SDS011;12611;44.446;26.000;2022-11-13T09:13:31;22.73;;;11.90;;
24425;SDS011;12611;44.446;26.000;2022-11-13T09:16:02;25.13;;;11.27;;
24425;SDS011;12611;44.446;26.000;2022-11-13T09:18:31;23.30;;;11.83;;
24425;SDS011;12611;44.446;26.000;2022-11-13T09:21:00;23.50;;;12.23;;
24425;SDS011;12611;44.446;26.000;2022-11-13T09:23:29;24.37;;;11.83;;
24425;SDS011;12611;44.446;26.000;2022-11-13T09:25:59;22.13;;;12.90;;
24425;SDS011;12611;44.446;26.000;2022-11-13T09:28:30;21.10;;;11.67;;
24425;SDS011;12611;44.446;26.000;2022-11-13T09:30:58;19.10;;;12.23;;
24425;SDS011;12611;44.446;26.000;2022-11-13T09:33:26;22.70;;;10.97;;
24425;SDS011;12611;44.446;26.000;2022-11-13T09:35:54;19.47;;;11.63;;
24425;SDS011;12611;44.446;26.000;2022-11-13T09:38:23;20.03;;;11.27;;
24425;SDS011;12611;44.446;26.000;2022-11-13T09:40:55;19.63;;;10.97;;
24425;SDS011;12611;44.446;26.000;2022-11-13T09:43:27;18.93;;;11.47;;
24425;SDS011;12611;44.446;26.000;2022-11-13T09:46:02;17.40;;;10.00;;
24425;SDS011;12611;44.446;26.000;2022-11-13T09:48:34;20.87;;;11.20;;
24425;SDS011;12611;44.446;26.000;2022-11-13T09:51:06;21.27;;;10.80;;
24425;SDS011;12611;44.446;26.000;2022-11-13T09:53:39;19.53;;;11.30;;
24425;SDS011;12611;44.446;26.000;2022-11-13T09:56:24;21.13;;;11.53;;
24425;SDS011;12611;44.446;26.000;2022-11-13T09:58:58;20.53;;;10.60;;
24425;SDS011;12611;44.446;26.000;2022-11-13T10:01:33;17.93;;;9.47;;
24425;SDS011;12611;44.446;26.000;2022-11-13T10:04:10;22.17;;;10.67;;
24425;SDS011;12611;44.446;26.000;2022-11-13T10:06:44;19.73;;;10.00;;
24425;SDS011;12611;44.446;26.000;2022-11-13T10:09:28;16.23;;;8.97;;
24425;SDS011;12611;44.446;26.000;2022-11-13T10:12:04;19.50;;;9.47;;
24425;SDS011;12611;44.446;26.000;2022-11-13T10:14:41;21.33;;;10.90;;
24425;SDS011;12611;44.446;26.000;2022-11-13T10:17:13;18.07;;;9.80;;
24425;SDS011;12611;44.446;26.000;2022-11-13T10:19:53;16.87;;;9.57;;
24425;SDS011;12611;44.446;26.000;2022-11-13T10:22:26;18.73;;;9.87;;
24425;SDS011;12611;44.446;26.000;2022-11-13T10:25:03;14.73;;;8.93;;
24425;SDS011;12611;44.446;26.000;2022-11-13T10:27:39;19.37;;;10.20;;
24425;SDS011;12611;44.446;26.000;2022-11-13T10:30:13;18.63;;;9.47;;
24425;SDS011;12611;44.446;26.000;2022-11-13T10:32:44;19.50;;;9.50;;
24425;SDS011;12611;44.446;26.000;2022-11-13T10:38:14;15.30;;;8.10;;
24425;SDS011;12611;44.446;26.000;2022-11-13T10:40:47;19.63;;;9.95;;
24425;SDS011;12611;44.446;26.000;2022-11-13T10:43:16;16.20;;;8.33;;
24425;SDS011;12611;44.446;26.000;2022-11-13T10:45:53;22.13;;;8.00;;
24425;SDS011;12611;44.446;26.000;2022-11-13T10:48:24;16.30;;;8.37;;
24425;SDS011;12611;44.446;26.000;2022-11-13T10:50:55;13.03;;;8.07;;
24425;SDS011;12611;44.446;26.000;2022-11-13T10:53:25;15.30;;;8.13;;
24425;SDS011;12611;44.446;26.000;2022-11-13T10:55:58;14.60;;;7.50;;
24425;SDS011;12611;44.446;26.000;2022-11-13T10:58:26;15.70;;;7.83;;
24425;SDS011;12611;44.446;26.000;2022-11-13T11:00:56;14.43;;;7.90;;
24425;SDS011;12611;44.446;26.000;2022-11-13T11:03:25;15.73;;;8.73;;
24425;SDS011;12611;44.446;26.000;2022-11-13T11:05:55;13.87;;;7.90;;
24425;SDS011;12611;44.446;26.000;2022-11-13T11:08:27;12.73;;;7.30;;
24425;SDS011;12611;44.446;26.000;2022-11-13T11:10:58;19.77;;;7.97;;
24425;SDS011;12611;44.446;26.000;2022-11-13T11:13:44;17.17;;;7.30;;
24425;SDS011;12611;44.446;26.000;2022-11-13T11:16:17;13.80;;;7.90;;
24425;SDS011;12611;44.446;26.000;2022-11-13T11:18:50;12.10;;;7.23;;
24425;SDS011;12611;44.446;26.000;2022-11-13T11:21:25;14.77;;;8.40;;
24425;SDS011;12611;44.446;26.000;2022-11-13T11:24:02;14.10;;;8.37;;
24425;SDS011;12611;44.446;26.000;2022-11-13T11:26:34;15.40;;;7.90;;
24425;SDS011;12611;44.446;26.000;2022-11-13T11:29:09;15.97;;;7.50;;
24425;SDS011;12611;44.446;26.000;2022-11-13T11:31:47;14.03;;;7.20;;
24425;SDS011;12611;44.446;26.000;2022-11-13T11:34:21;13.33;;;5.67;;
24425;SDS011;12611;44.446;26.000;2022-11-13T11:36:57;11.47;;;6.27;;
24425;SDS011;12611;44.446;26.000;2022-11-13T11:39:34;11.03;;;6.20;;
24425;SDS011;12611;44.446;26.000;2022-11-13T11:42:16;12.63;;;6.80;;
24425;SDS011;12611;44.446;26.000;2022-11-13T11:44:54;11.40;;;5.90;;
24425;SDS011;12611;44.446;26.000;2022-11-13T11:47:31;11.33;;;6.00;;
24425;SDS011;12611;44.446;26.000;2022-11-13T11:50:00;13.40;;;7.27;;
24425;SDS011;12611;44.446;26.000;2022-11-13T11:58:19;12.13;;;6.57;;
24425;SDS011;12611;44.446;26.000;2022-11-13T12:01:00;17.83;;;6.37;;
24425;SDS011;12611;44.446;26.000;2022-11-13T12:03:43;14.20;;;6.87;;
24425;SDS011;12611;44.446;26.000;2022-11-13T12:06:26;12.57;;;6.43;;
24425;SDS011;12611;44.446;26.000;2022-11-13T12:09:07;11.77;;;6.07;;
24425;SDS011;12611;44.446;26.000;2022-11-13T12:11:45;16.73;;;6.63;;
24425;SDS011;12611;44.446;26.000;2022-11-13T12:14:20;9.97;;;5.77;;
24425;SDS011;12611;44.446;26.000;2022-11-13T12:16:57;12.87;;;6.10;;
24425;SDS011;12611;44.446;26.000;2022-11-13T12:19:45;12.70;;;5.73;;
24425;SDS011;12611;44.446;26.000;2022-11-13T12:22:23;13.43;;;6.43;;
24425;SDS011;12611;44.446;26.000;2022-11-13T12:25:02;10.73;;;5.67;;
24425;SDS011;12611;44.446;26.000;2022-11-13T12:27:41;10.40;;;5.37;;
24425;SDS011;12611;44.446;26.000;2022-11-13T12:30:15;12.10;;;5.67;;
24425;SDS011;12611;44.446;26.000;2022-11-13T12:32:55;12.70;;;6.10;;
24425;SDS011;12611;44.446;26.000;2022-11-13T12:35:34;10.47;;;5.80;;
24425;SDS011;12611;44.446;26.000;2022-11-13T12:38:08;9.70;;;5.37;;
24425;SDS011;12611;44.446;26.000;2022-11-13T12:40:46;11.30;;;5.17;;
24425;SDS011;12611;44.446;26.000;2022-11-13T12:43:27;11.43;;;5.23;;
24425;SDS011;12611;44.446;26.000;2022-11-13T12:46:02;10.00;;;5.40;;
24425;SDS011;12611;44.446;26.000;2022-11-13T12:48:37;12.18;;;5.82;;
24425;SDS011;12611;44.446;26.000;2022-11-13T12:51:09;10.70;;;5.18;;
24425;SDS011;12611;44.446;26.000;2022-11-13T12:53:44;10.13;;;5.38;;
24425;SDS011;12611;44.446;26.000;2022-11-13T12:56:15;10.90;;;6.43;;
24425;SDS011;12611;44.446;26.000;2022-11-13T12:58:56;12.45;;;5.82;;
24425;SDS011;12611;44.446;26.000;2022-11-13T13:01:41;9.57;;;5.03;;
24425;SDS011;12611;44.446;26.000;2022-11-13T13:04:16;11.98;;;5.65;;
24425;SDS011;12611;44.446;26.000;2022-11-13T13:07:10;13.13;;;6.70;;
24425;SDS011;12611;44.446;26.000;2022-11-13T13:09:53;13.30;;;6.57;;
24425;SDS011;12611;44.446;26.000;2022-11-13T13:12:38;12.55;;;6.18;;
24425;SDS011;12611;44.446;26.000;2022-11-13T13:15:24;10.52;;;5.90;;
24425;SDS011;12611;44.446;26.000;2022-11-13T13:18:03;10.13;;;5.50;;
24425;SDS011;12611;44.446;26.000;2022-11-13T13:20:37;11.93;;;6.40;;
24425;SDS011;12611;44.446;26.000;2022-11-13T13:23:11;14.20;;;6.60;;
24425;SDS011;12611;44.446;26.000;2022-11-13T13:25:40;12.98;;;7.22;;
24425;SDS011;12611;44.446;26.000;2022-11-13T13:28:16;15.98;;;7.95;;
24425;SDS011;12611;44.446;26.000;2022-11-13T13:30:49;11.38;;;6.13;;
24425;SDS011;12611;44.446;26.000;2022-11-13T13:33:24;12.18;;;6.53;;
24425;SDS011;12611;44.446;26.000;2022-11-13T13:36:05;8.95;;;5.70;;
24425;SDS011;12611;44.446;26.000;2022-11-13T13:38:44;11.23;;;6.40;;
24425;SDS011;12611;44.446;26.000;2022-11-13T13:41:21;12.68;;;6.68;;
24425;SDS011;12611;44.446;26.000;2022-11-13T13:44:02;11.02;;;6.03;;
24425;SDS011;12611;44.446;26.000;2022-11-13T13:46:45;11.23;;;6.07;;
24425;SDS011;12611;44.446;26.000;2022-11-13T13:49:14;11.15;;;6.18;;
24425;SDS011;12611;44.446;26.000;2022-11-13T13:51:47;11.35;;;6.82;;
24425;SDS011;12611;44.446;26.000;2022-11-13T13:54:19;11.73;;;6.80;;
24425;SDS011;12611;44.446;26.000;2022-11-13T13:56:51;11.32;;;5.75;;
24425;SDS011;12611;44.446;26.000;2022-11-13T13:59:27;11.53;;;6.23;;
24425;SDS011;12611;44.446;26.000;2022-11-13T14:01:58;12.13;;;6.07;;
24425;SDS011;12611;44.446;26.000;2022-11-13T14:04:28;13.47;;;5.67;;
24425;SDS011;12611;44.446;26.000;2022-11-13T14:07:00;9.33;;;5.70;;
24425;SDS011;12611;44.446;26.000;2022-11-13T14:09:31;10.57;;;5.97;;
24425;SDS011;12611;44.446;26.000;2022-11-13T14:12:00;12.07;;;7.20;;
24425;SDS011;12611;44.446;26.000;2022-11-13T14:14:37;18.47;;;8.90;;
24425;SDS011;12611;44.446;26.000;2022-11-13T14:17:07;16.67;;;8.77;;
24425;SDS011;12611;44.446;26.000;2022-11-13T14:19:37;14.27;;;8.13;;
24425;SDS011;12611;44.446;26.000;2022-11-13T14:22:05;20.83;;;9.53;;
24425;SDS011;12611;44.446;26.000;2022-11-13T14:24:42;20.33;;;9.43;;
24425;SDS011;12611;44.446;26.000;2022-11-13T14:27:15;24.90;;;9.47;;
24425;SDS011;12611;44.446;26.000;2022-11-13T14:29:46;17.90;;;9.20;;
24425;SDS011;12611;44.446;26.000;2022-11-13T14:32:17;20.50;;;8.87;;
24425;SDS011;12611;44.446;26.000;2022-11-13T14:34:48;17.27;;;8.63;;
24425;SDS011;12611;44.446;26.000;2022-11-13T14:37:21;18.20;;;9.43;;
24425;SDS011;12611;44.446;26.000;2022-11-13T14:39:53;19.07;;;8.80;;
24425;SDS011;12611;44.446;26.000;2022-11-13T14:42:24;18.20;;;9.20;;
24425;SDS011;12611;44.446;26.000;2022-11-13T14:45:04;21.63;;;9.23;;
24425;SDS011;12611;44.446;26.000;2022-11-13T14:47:42;20.23;;;10.73;;